createdAt,value
2023-03-19T00:01:56.179Z,4.60
2023-03-19T00:04:24.463Z,4.67
2023-03-19T00:06:51.229Z,4.33
2023-03-19T00:09:19.313Z,5.23
2023-03-19T00:11:46.028Z,4.23
2023-03-19T00:14:12.603Z,4.60
2023-03-19T00:16:39.446Z,4.00
2023-03-19T00:19:06.369Z,4.80
2023-03-19T00:21:32.882Z,3.93
2023-03-19T00:24:02.925Z,4.30
2023-03-19T00:26:30.963Z,4.87
2023-03-19T00:28:57.729Z,4.03
2023-03-19T00:31:25.336Z,4.10
2023-03-19T00:33:52.105Z,4.60
2023-03-19T00:36:18.940Z,4.60
2023-03-19T00:38:46.664Z,4.73
2023-03-19T00:41:13.495Z,5.23
2023-03-19T00:43:41.367Z,4.80
2023-03-19T00:46:07.981Z,4.80
2023-03-19T00:48:34.656Z,4.80
2023-03-19T00:51:09.555Z,4.93
2023-03-19T00:53:43.874Z,4.67
2023-03-19T00:56:12.077Z,4.17
2023-03-19T00:58:39.101Z,3.40
2023-03-19T01:01:06.058Z,5.20
2023-03-19T01:03:32.654Z,5.60
2023-03-19T01:05:59.389Z,5.80
2023-03-19T01:08:26.417Z,5.50
2023-03-19T01:10:52.961Z,4.60
2023-03-19T01:13:19.645Z,3.53
2023-03-19T01:15:46.834Z,4.23
2023-03-19T01:18:13.515Z,4.20
2023-03-19T01:20:42.285Z,4.50
2023-03-19T01:23:08.877Z,3.97
2023-03-19T01:25:35.759Z,4.10
2023-03-19T01:28:02.935Z,4.20
2023-03-19T01:30:29.641Z,3.87
2023-03-19T01:32:56.218Z,3.77
2023-03-19T01:35:22.853Z,4.03
2023-03-19T01:37:49.459Z,3.80
2023-03-19T01:40:16.191Z,3.53
2023-03-19T01:43:13.405Z,4.10
2023-03-19T01:45:42.378Z,3.23
2023-03-19T01:48:20.733Z,4.10
2023-03-19T01:50:47.787Z,3.80
2023-03-19T01:53:16.232Z,3.87
2023-03-19T01:55:42.706Z,4.00
2023-03-19T01:58:10.545Z,4.33
2023-03-19T02:00:38.298Z,4.40
2023-03-19T02:03:06.414Z,3.90
2023-03-19T02:05:34.301Z,3.73
2023-03-19T02:08:05.191Z,4.57
2023-03-19T02:10:32.505Z,5.90
2023-03-19T02:12:59.301Z,4.87
2023-03-19T02:15:26.186Z,5.70
2023-03-19T02:17:52.814Z,4.50
2023-03-19T02:20:37.583Z,4.43
2023-03-19T02:23:14.581Z,4.03
2023-03-19T02:25:44.752Z,3.97
2023-03-19T02:28:13.050Z,4.20
2023-03-19T02:30:39.607Z,3.03
2023-03-19T02:33:06.455Z,3.60
2023-03-19T02:35:34.855Z,3.50
2023-03-19T02:38:03.702Z,3.73
2023-03-19T02:40:34.681Z,3.57
2023-03-19T02:43:01.447Z,3.83
2023-03-19T02:45:32.106Z,3.83
2023-03-19T02:48:00.072Z,3.77
2023-03-19T02:50:27.529Z,4.00
2023-03-19T02:52:54.501Z,3.60
2023-03-19T02:55:21.623Z,3.10
2023-03-19T02:57:48.193Z,3.43
2023-03-19T03:00:17.107Z,3.77
2023-03-19T03:02:43.896Z,4.03
2023-03-19T03:05:10.618Z,3.63
2023-03-19T03:07:37.729Z,4.23
2023-03-19T03:10:04.681Z,3.70
2023-03-19T03:12:31.616Z,3.60
2023-03-19T03:14:58.375Z,4.83
2023-03-19T03:17:24.944Z,4.70
2023-03-19T03:19:51.721Z,3.90
2023-03-19T03:22:18.275Z,4.00
2023-03-19T03:24:45.330Z,3.60
2023-03-19T03:27:12.181Z,4.20
2023-03-19T03:29:38.616Z,2.93
2023-03-19T03:32:07.273Z,4.30
2023-03-19T03:34:33.971Z,3.77
2023-03-19T03:37:00.550Z,3.90
2023-03-19T03:39:27.679Z,3.63
2023-03-19T03:41:54.218Z,3.97
2023-03-19T03:44:21.080Z,3.27
2023-03-19T03:46:48.165Z,3.73
2023-03-19T03:49:14.985Z,4.23
2023-03-19T03:51:42.111Z,4.53
2023-03-19T03:54:08.663Z,4.43
2023-03-19T03:56:35.664Z,4.27
2023-03-19T03:59:02.372Z,4.30
2023-03-19T04:01:28.900Z,3.90
2023-03-19T04:03:55.592Z,4.23
2023-03-19T04:06:23.350Z,4.00
2023-03-19T04:08:50.117Z,3.20
2023-03-19T04:11:16.882Z,3.53
2023-03-19T04:13:43.464Z,3.70
2023-03-19T04:16:11.079Z,3.20
2023-03-19T04:18:38.484Z,3.80
2023-03-19T04:21:05.858Z,3.50
2023-03-19T04:23:32.566Z,4.03
2023-03-19T04:26:00.585Z,3.50
2023-03-19T04:28:27.419Z,3.60
2023-03-19T04:30:59.386Z,4.20
2023-03-19T04:33:26.040Z,3.80
2023-03-19T04:35:52.721Z,3.90
2023-03-19T04:38:19.891Z,3.40
2023-03-19T04:40:48.046Z,4.10
2023-03-19T04:43:14.766Z,3.40
2023-03-19T04:45:41.716Z,3.73
2023-03-19T04:48:08.764Z,4.43
2023-03-19T04:50:35.685Z,4.47
2023-03-19T04:53:02.756Z,3.77
2023-03-19T04:55:29.392Z,3.80
2023-03-19T04:57:56.331Z,4.20
2023-03-19T05:00:22.976Z,4.63
2023-03-19T05:02:49.680Z,4.40
2023-03-19T05:05:16.339Z,6.20
2023-03-19T05:07:42.869Z,5.83
2023-03-19T05:10:10.792Z,3.70
2023-03-19T05:12:37.420Z,4.30
2023-03-19T05:15:05.459Z,4.20
2023-03-19T05:17:32.558Z,5.13
2023-03-19T05:19:59.402Z,3.93
2023-03-19T05:22:26.380Z,4.40
2023-03-19T05:24:53.041Z,4.30
2023-03-19T05:27:19.680Z,3.73
2023-03-19T05:29:47.154Z,4.43
2023-03-19T05:32:13.871Z,4.20
2023-03-19T05:34:40.418Z,4.43
2023-03-19T05:37:06.959Z,8.40
2023-03-19T05:39:34.054Z,6.57
2023-03-19T05:42:00.669Z,5.40
2023-03-19T05:44:27.415Z,4.57
2023-03-19T05:46:54.349Z,4.20
2023-03-19T05:49:20.914Z,4.30
2023-03-19T05:51:47.529Z,4.30
2023-03-19T05:54:14.009Z,5.07
2023-03-19T05:56:40.528Z,5.03
2023-03-19T05:59:07.003Z,4.47
2023-03-19T06:01:33.710Z,5.00
2023-03-19T06:04:00.422Z,4.57
2023-03-19T06:06:26.964Z,4.43
2023-03-19T06:08:53.671Z,4.97
2023-03-19T06:11:20.201Z,5.47
2023-03-19T06:13:47.535Z,4.60
2023-03-19T06:16:14.082Z,5.03
2023-03-19T06:18:41.093Z,4.47
2023-03-19T06:21:07.574Z,5.47
2023-03-19T06:23:34.299Z,4.87
2023-03-19T06:26:00.864Z,4.27
2023-03-19T06:28:27.419Z,4.50
2023-03-19T06:30:56.957Z,4.33
2023-03-19T06:33:27.523Z,4.80
2023-03-19T06:35:54.318Z,4.80
2023-03-19T06:38:21.436Z,5.93
2023-03-19T06:40:48.439Z,4.77
2023-03-19T06:43:15.015Z,5.03
2023-03-19T06:45:41.578Z,4.37
2023-03-19T06:48:08.111Z,4.70
2023-03-19T06:50:34.795Z,5.10
2023-03-19T06:53:02.639Z,4.93
2023-03-19T06:55:31.000Z,4.87
2023-03-19T06:57:57.502Z,4.43
2023-03-19T07:00:24.606Z,4.70
2023-03-19T07:02:51.277Z,4.43
2023-03-19T07:05:17.859Z,6.00
2023-03-19T07:07:44.530Z,4.80
2023-03-19T07:10:11.208Z,5.10
2023-03-19T07:12:37.771Z,5.70
2023-03-19T07:15:04.832Z,5.30
2023-03-19T07:17:31.653Z,4.40
2023-03-19T07:19:58.343Z,4.37
2023-03-19T07:22:24.919Z,4.60
2023-03-19T07:24:51.697Z,4.30
2023-03-19T07:27:18.326Z,5.33
2023-03-19T07:29:45.086Z,4.67
2023-03-19T07:32:11.723Z,5.43
2023-03-19T07:34:38.330Z,4.80
2023-03-19T07:37:05.235Z,4.97
2023-03-19T07:39:31.823Z,4.47
2023-03-19T07:41:58.474Z,4.37
2023-03-19T07:44:24.923Z,4.20
2023-03-19T07:46:51.465Z,4.33
2023-03-19T07:49:17.983Z,4.97
2023-03-19T07:51:44.598Z,4.03
2023-03-19T07:54:11.348Z,3.83
2023-03-19T07:56:37.801Z,5.80
2023-03-19T07:59:04.343Z,6.50
2023-03-19T08:01:30.891Z,5.90
2023-03-19T08:03:57.485Z,4.30
2023-03-19T08:06:24.232Z,4.73
2023-03-19T08:08:51.063Z,4.20
2023-03-19T08:11:17.702Z,4.40
2023-03-19T08:13:44.292Z,5.10
2023-03-19T08:16:10.899Z,5.13
2023-03-19T08:18:37.528Z,4.27
2023-03-19T08:21:04.266Z,4.70
2023-03-19T08:23:30.885Z,4.63
2023-03-19T08:25:57.474Z,3.90
2023-03-19T08:28:24.282Z,4.40
2023-03-19T08:30:51.376Z,4.67
2023-03-19T08:33:18.039Z,4.40
2023-03-19T08:35:44.577Z,3.83
2023-03-19T08:38:11.326Z,5.57
2023-03-19T08:40:37.843Z,4.47
2023-03-19T08:43:04.381Z,4.63
2023-03-19T08:45:30.886Z,4.07
2023-03-19T08:47:58.308Z,4.40
2023-03-19T08:50:24.871Z,4.87
2023-03-19T08:52:51.386Z,4.20
2023-03-19T08:55:18.361Z,4.23
2023-03-19T08:57:44.951Z,5.00
2023-03-19T09:00:12.682Z,5.37
2023-03-19T09:02:40.392Z,4.47
2023-03-19T09:05:07.398Z,4.83
2023-03-19T09:07:34.049Z,4.57
2023-03-19T09:10:00.617Z,5.07
2023-03-19T09:12:27.207Z,4.30
2023-03-19T09:14:53.775Z,4.20
2023-03-19T09:17:20.352Z,5.13
2023-03-19T09:19:46.977Z,4.03
2023-03-19T09:22:13.433Z,5.93
2023-03-19T09:24:40.755Z,4.50
2023-03-19T09:27:07.778Z,4.73
2023-03-19T09:29:34.319Z,4.50
2023-03-19T09:32:00.981Z,5.10
2023-03-19T09:34:27.872Z,5.23
2023-03-19T09:36:55.280Z,4.97
2023-03-19T09:39:21.930Z,6.00
2023-03-19T09:42:03.498Z,6.40
2023-03-19T09:44:38.083Z,5.37
2023-03-19T09:47:27.247Z,5.37
2023-03-19T09:49:57.802Z,5.60
2023-03-19T09:52:36.192Z,6.47
2023-03-19T09:55:24.473Z,6.60
2023-03-19T09:57:53.470Z,7.43
2023-03-19T10:00:23.615Z,7.30
2023-03-19T10:03:05.398Z,7.87
2023-03-19T10:05:43.140Z,6.30
2023-03-19T10:08:39.505Z,5.90
2023-03-19T10:11:17.794Z,6.37
2023-03-19T10:14:02.830Z,6.30
2023-03-19T10:16:30.259Z,5.77
2023-03-19T10:19:02.748Z,5.60
2023-03-19T10:21:42.400Z,6.90
2023-03-19T10:24:39.541Z,6.80
2023-03-19T10:27:13.483Z,6.47
2023-03-19T10:29:41.470Z,6.70
2023-03-19T10:32:19.070Z,6.73
2023-03-19T10:34:51.020Z,6.20
2023-03-19T10:37:22.076Z,7.13
2023-03-19T10:39:51.080Z,7.77
2023-03-19T10:42:27.614Z,7.50
2023-03-19T10:45:03.065Z,7.63
2023-03-19T10:47:29.788Z,7.70
2023-03-19T10:49:56.883Z,8.80
2023-03-19T10:52:32.867Z,7.83
2023-03-19T10:55:30.147Z,7.60
2023-03-19T10:58:06.161Z,8.40
2023-03-19T11:00:35.491Z,8.47
2023-03-19T11:03:05.605Z,8.67
2023-03-19T11:05:34.578Z,7.30
2023-03-19T11:08:02.743Z,7.17
2023-03-19T11:10:31.787Z,7.87
2023-03-19T11:13:00.823Z,7.87
2023-03-19T11:15:38.299Z,7.53
2023-03-19T11:18:23.478Z,8.03
2023-03-19T11:20:56.354Z,7.83
2023-03-19T11:23:22.997Z,7.97
2023-03-19T11:25:54.222Z,7.50
2023-03-19T11:28:26.288Z,8.07
2023-03-19T11:30:53.166Z,7.30
2023-03-19T11:33:30.036Z,8.20
2023-03-19T11:36:05.771Z,8.53
2023-03-19T11:38:35.345Z,7.83
2023-03-19T11:41:18.325Z,7.77
2023-03-19T11:43:56.274Z,7.40
2023-03-19T11:46:39.688Z,8.57
2023-03-19T11:49:15.633Z,7.43
2023-03-19T11:51:44.946Z,6.80
2023-03-19T11:54:20.845Z,10.53
2023-03-19T11:57:02.208Z,6.77
2023-03-19T11:59:46.816Z,7.20
2023-03-19T12:02:52.121Z,6.53
2023-03-19T12:05:19.800Z,7.13
2023-03-19T12:07:58.038Z,6.37
2023-03-19T12:10:27.868Z,7.00
2023-03-19T12:13:03.615Z,7.27
2023-03-19T12:15:53.901Z,6.73
2023-03-19T12:18:48.531Z,7.00
2023-03-19T12:21:21.627Z,6.60
2023-03-19T12:24:11.658Z,7.00
2023-03-19T12:26:57.349Z,7.17
2023-03-19T12:29:58.798Z,8.73
2023-03-19T12:32:35.501Z,6.73
2023-03-19T12:35:16.399Z,7.33
2023-03-19T12:37:50.655Z,5.53
2023-03-19T12:40:22.789Z,11.60
2023-03-19T12:42:49.322Z,7.67
2023-03-19T12:45:31.020Z,6.43
2023-03-19T12:48:02.622Z,6.00
2023-03-19T12:50:31.293Z,7.13
2023-03-19T12:52:58.596Z,6.60
2023-03-19T12:55:43.468Z,6.67
2023-03-19T12:58:34.788Z,5.97
2023-03-19T13:01:10.249Z,6.50
2023-03-19T13:03:53.724Z,7.20
2023-03-19T13:06:24.647Z,6.57
2023-03-19T13:09:03.832Z,6.70
2023-03-19T13:11:49.339Z,6.33
2023-03-19T13:14:27.070Z,7.00
2023-03-19T13:17:08.725Z,6.30
2023-03-19T13:19:47.536Z,6.70
2023-03-19T13:22:17.451Z,6.00
2023-03-19T13:24:45.553Z,6.00
2023-03-19T13:27:18.593Z,5.87
2023-03-19T13:30:14.756Z,6.47
2023-03-19T13:32:44.969Z,7.20
2023-03-19T13:35:32.337Z,7.17
2023-03-19T13:38:34.815Z,6.20
2023-03-19T13:41:02.293Z,6.63
2023-03-19T13:43:29.273Z,7.10
2023-03-19T13:46:35.769Z,6.57
2023-03-19T13:49:19.517Z,7.37
2023-03-19T13:51:49.182Z,5.90
2023-03-19T13:54:20.058Z,5.70
2023-03-19T13:57:06.953Z,5.07
2023-03-19T13:59:36.303Z,6.67
2023-03-19T14:02:24.305Z,5.93
2023-03-19T14:05:04.530Z,7.00
2023-03-19T14:07:38.488Z,6.50
2023-03-19T14:10:12.704Z,6.80
2023-03-19T14:12:43.120Z,5.87
2023-03-19T14:15:10.154Z,6.50
2023-03-19T14:17:42.033Z,5.60
2023-03-19T14:20:12.778Z,6.60
2023-03-19T14:22:58.247Z,6.40
2023-03-19T14:25:27.563Z,6.10
2023-03-19T14:28:03.437Z,6.70
2023-03-19T14:30:34.058Z,6.67
2023-03-19T14:33:04.803Z,6.60
2023-03-19T14:35:37.069Z,7.43
2023-03-19T14:38:11.957Z,6.17
2023-03-19T14:40:47.591Z,6.30
2023-03-19T14:43:34.715Z,6.37
2023-03-19T14:46:03.982Z,5.73
2023-03-19T14:48:46.305Z,6.63
2023-03-19T14:51:12.844Z,5.87
2023-03-19T14:53:42.767Z,6.70
2023-03-19T14:56:19.585Z,5.73
2023-03-19T14:58:51.383Z,6.30
2023-03-19T15:01:18.674Z,6.33
2023-03-19T15:03:45.590Z,6.60
2023-03-19T15:06:14.422Z,6.10
2023-03-19T15:08:41.961Z,5.33
2023-03-19T15:11:14.637Z,6.37
2023-03-19T15:13:53.247Z,26.13
2023-03-19T15:16:42.604Z,15.77
2023-03-19T15:19:10.764Z,9.93
2023-03-19T15:21:40.650Z,7.30
2023-03-19T15:24:14.334Z,37.57
2023-03-19T15:26:41.287Z,16.30
2023-03-19T15:29:12.291Z,5.80
2023-03-19T15:31:54.033Z,5.90
2023-03-19T15:34:29.815Z,6.40
2023-03-19T15:37:05.649Z,7.23
2023-03-19T15:39:41.236Z,21.87
2023-03-19T15:42:07.823Z,7.20
2023-03-19T15:44:39.123Z,8.00
2023-03-19T15:47:07.515Z,6.70
2023-03-19T15:49:39.745Z,6.70
2023-03-19T15:52:11.285Z,6.67
2023-03-19T15:54:38.024Z,16.30
2023-03-19T15:57:06.747Z,6.30
2023-03-19T15:59:33.475Z,5.73
2023-03-19T16:02:02.048Z,5.93
2023-03-19T16:04:30.499Z,4.87
2023-03-19T16:06:58.580Z,14.37
2023-03-19T16:09:31.996Z,12.00
2023-03-19T16:11:59.109Z,18.90
2023-03-19T16:14:27.036Z,17.03
2023-03-19T16:17:01.421Z,7.20
2023-03-19T16:19:35.922Z,5.90
2023-03-19T16:22:11.092Z,5.23
2023-03-19T16:24:41.004Z,5.43
2023-03-19T16:27:12.044Z,5.33
2023-03-19T16:29:41.880Z,5.40
2023-03-19T16:32:11.344Z,4.40
2023-03-19T16:34:42.511Z,4.93
2023-03-19T16:37:24.331Z,5.63
2023-03-19T16:39:56.372Z,6.10
2023-03-19T16:42:32.205Z,5.03
2023-03-19T16:45:22.987Z,4.40
2023-03-19T16:47:53.331Z,5.40
2023-03-19T16:50:31.808Z,4.17
2023-03-19T16:53:00.489Z,4.13
2023-03-19T16:55:32.707Z,4.93
2023-03-19T16:58:01.508Z,4.13
2023-03-19T17:00:31.867Z,4.20
2023-03-19T17:02:59.418Z,4.10
2023-03-19T17:05:27.895Z,4.23
2023-03-19T17:07:55.901Z,8.67
2023-03-19T17:10:24.815Z,9.80
2023-03-19T17:12:53.488Z,8.07
2023-03-19T17:15:25.783Z,5.77
2023-03-19T17:17:52.597Z,5.30
2023-03-19T17:20:21.420Z,4.80
2023-03-19T17:22:48.034Z,5.10
2023-03-19T17:25:18.449Z,4.50
2023-03-19T17:27:45.590Z,4.60
2023-03-19T17:30:13.660Z,4.50
2023-03-19T17:32:42.118Z,5.50
2023-03-19T17:35:19.842Z,5.13
2023-03-19T17:37:46.965Z,6.23
2023-03-19T17:40:18.054Z,7.03
2023-03-19T17:42:44.687Z,9.60
2023-03-19T17:45:19.823Z,10.43
2023-03-19T17:47:53.081Z,10.53
2023-03-19T17:50:22.507Z,10.27
2023-03-19T17:52:49.447Z,8.30
2023-03-19T17:55:16.197Z,7.43
2023-03-19T17:57:42.779Z,6.20
2023-03-19T18:00:10.540Z,6.33
2023-03-19T18:02:37.909Z,6.13
2023-03-19T18:05:04.661Z,5.60
2023-03-19T18:07:31.296Z,5.20
2023-03-19T18:09:57.839Z,5.70
2023-03-19T18:12:24.535Z,5.60
2023-03-19T18:14:57.868Z,4.87
2023-03-19T18:17:24.410Z,6.23
2023-03-19T18:19:52.454Z,7.80
2023-03-19T18:22:21.201Z,9.93
2023-03-19T18:24:47.799Z,8.20
2023-03-19T18:27:14.756Z,9.00
2023-03-19T18:29:41.434Z,8.53
2023-03-19T18:32:15.259Z,7.80
2023-03-19T18:34:41.840Z,8.03
2023-03-19T18:37:14.860Z,8.70
2023-03-19T18:39:41.432Z,8.83
2023-03-19T18:42:08.113Z,8.70
2023-03-19T18:44:34.626Z,7.10
2023-03-19T18:47:01.235Z,7.60
2023-03-19T18:49:28.457Z,7.60
2023-03-19T18:52:02.566Z,7.10
2023-03-19T18:54:31.575Z,7.20
2023-03-19T18:56:59.780Z,8.53
2023-03-19T18:59:30.433Z,9.20
2023-03-19T19:02:18.215Z,7.30
2023-03-19T19:04:44.725Z,7.00
2023-03-19T19:07:15.774Z,6.07
2023-03-19T19:09:42.648Z,7.73
2023-03-19T19:12:13.438Z,7.90
2023-03-19T19:14:40.221Z,8.80
2023-03-19T19:17:09.437Z,7.87
2023-03-19T19:19:35.960Z,6.63
2023-03-19T19:22:02.630Z,7.17
2023-03-19T19:24:29.161Z,7.40
2023-03-19T19:26:56.968Z,7.57
2023-03-19T19:29:25.600Z,6.93
2023-03-19T19:31:53.387Z,11.13
2023-03-19T19:34:20.640Z,12.77
2023-03-19T19:36:47.159Z,10.50
2023-03-19T19:39:13.981Z,10.13
2023-03-19T19:41:43.796Z,11.07
2023-03-19T19:44:20.456Z,11.13
2023-03-19T19:46:47.024Z,9.90
2023-03-19T19:49:15.090Z,9.10
2023-03-19T19:51:41.631Z,9.57
2023-03-19T19:54:08.238Z,11.00
2023-03-19T19:56:35.134Z,11.90
2023-03-19T19:59:03.113Z,13.10
2023-03-19T20:01:29.794Z,13.70
2023-03-19T20:03:56.459Z,12.43
2023-03-19T20:06:23.062Z,11.87
2023-03-19T20:08:49.542Z,9.30
2023-03-19T20:11:21.620Z,7.87
2023-03-19T20:13:52.030Z,7.97
2023-03-19T20:16:20.143Z,9.23
2023-03-19T20:18:47.575Z,19.07
2023-03-19T20:21:15.181Z,14.67
2023-03-19T20:23:45.965Z,10.47
2023-03-19T20:26:21.892Z,9.07
2023-03-19T20:28:48.605Z,8.70
2023-03-19T20:31:26.069Z,9.13
2023-03-19T20:33:52.804Z,9.30
2023-03-19T20:36:19.654Z,8.90
2023-03-19T20:38:46.608Z,10.03
2023-03-19T20:41:20.325Z,9.53
2023-03-19T20:43:47.298Z,8.50
2023-03-19T20:46:15.565Z,7.87
2023-03-19T20:48:42.304Z,8.37
2023-03-19T20:51:19.718Z,8.97
2023-03-19T20:53:48.340Z,8.37
2023-03-19T20:56:16.189Z,8.03
2023-03-19T20:58:42.772Z,9.20
2023-03-19T21:01:10.753Z,10.37
2023-03-19T21:03:38.261Z,9.50
2023-03-19T21:06:06.937Z,9.00
2023-03-19T21:08:42.420Z,9.77
2023-03-19T21:11:18.025Z,8.90
2023-03-19T21:13:48.807Z,9.03
2023-03-19T21:16:18.673Z,7.53
2023-03-19T21:18:46.600Z,8.33
2023-03-19T21:21:13.752Z,9.13
2023-03-19T21:23:42.366Z,9.73
2023-03-19T21:26:19.693Z,9.73
2023-03-19T21:28:47.714Z,9.30
2023-03-19T21:31:19.054Z,9.53
2023-03-19T21:33:48.943Z,8.70
2023-03-19T21:36:15.791Z,9.50
2023-03-19T21:38:42.865Z,9.97
2023-03-19T21:41:25.020Z,9.77
2023-03-19T21:44:00.152Z,8.10
2023-03-19T21:46:29.000Z,7.40
2023-03-19T21:48:56.873Z,8.53
2023-03-19T21:51:25.231Z,7.43
2023-03-19T21:53:52.163Z,7.27
2023-03-19T21:56:24.611Z,7.73
2023-03-19T21:58:54.308Z,9.10
2023-03-19T22:01:24.139Z,10.20
2023-03-19T22:03:52.020Z,8.63
2023-03-19T22:06:19.241Z,8.87
2023-03-19T22:08:48.017Z,7.40
2023-03-19T22:11:21.631Z,8.40
2023-03-19T22:13:48.483Z,9.17
2023-03-19T22:16:21.077Z,8.00
2023-03-19T22:18:49.133Z,7.57
2023-03-19T22:21:17.920Z,7.40
2023-03-19T22:23:45.989Z,7.77
2023-03-19T22:26:29.298Z,8.47
2023-03-19T22:28:58.109Z,8.47
2023-03-19T22:31:25.135Z,9.33
2023-03-19T22:33:52.318Z,8.30
2023-03-19T22:36:19.233Z,6.70
2023-03-19T22:38:47.062Z,7.80
2023-03-19T22:41:30.828Z,7.90
2023-03-19T22:43:58.348Z,7.40
2023-03-19T22:46:25.523Z,8.13
2023-03-19T22:48:52.422Z,8.50
2023-03-19T22:51:21.571Z,8.33
2023-03-19T22:53:48.515Z,8.13
2023-03-19T22:56:16.124Z,8.37
2023-03-19T22:58:43.091Z,9.20
2023-03-19T23:01:29.024Z,9.07
2023-03-19T23:03:57.228Z,7.80
2023-03-19T23:06:30.506Z,7.03
2023-03-19T23:08:58.230Z,6.60
2023-03-19T23:11:25.130Z,7.20
2023-03-19T23:13:51.792Z,6.77
2023-03-19T23:16:23.622Z,7.20
2023-03-19T23:18:51.003Z,8.47
2023-03-19T23:21:18.614Z,7.23
2023-03-19T23:23:45.590Z,7.43
2023-03-19T23:26:23.367Z,7.87
2023-03-19T23:28:49.867Z,9.80
2023-03-19T23:31:16.826Z,9.63
2023-03-19T23:33:43.540Z,8.13
2023-03-19T23:36:10.557Z,9.00
2023-03-19T23:38:37.069Z,9.60
2023-03-19T23:41:03.856Z,9.50
2023-03-19T23:43:32.111Z,9.23
2023-03-19T23:45:58.928Z,8.80
2023-03-19T23:48:29.980Z,9.43
2023-03-19T23:50:56.495Z,10.70
2023-03-19T23:53:25.601Z,10.67
2023-03-19T23:55:54.716Z,10.00
2023-03-19T23:58:21.987Z,9.10
